MDT,Max TemperatureF,Mean TemperatureF,Min TemperatureF,Max Dew PointF,MeanDew PointF,Min DewpointF,Max Humidity, Mean Humidity, Min Humidity, Max Sea Level PressureIn, Mean Sea Level PressureIn, Min Sea Level PressureIn, Max VisibilityMiles, Mean VisibilityMiles, Min VisibilityMiles, Max Wind SpeedMPH, Mean Wind SpeedMPH, Max Gust SpeedMPH,PrecipitationIn, CloudCover, Events, WindDirDegrees
2013-7-1,110,89,67,65,56,42,73,42,11,29.92,29.85,29.77,10,10,10,18,4,25,0.00,0,,333
2013-7-2,107,89,71,67,57,47,60,39,18,29.94,29.90,29.83,10,10,10,16,4,21,0.00,0,,250
2013-7-3,104,88,71,65,55,46,68,42,16,29.96,29.88,29.78,10,10,8,21,6,24,0.00,0,,345
2013-7-4,97,84,71,45,38,29,33,22,11,29.88,29.81,29.71,10,10,10,20,7,25,0.00,0,,324
2013-7-5,94,80,66,41,37,33,37,26,14,29.79,29.74,29.65,10,10,10,24,10,31,0.00,0,,319
2013-7-6,93,75,57,46,37,28,51,31,11,29.84,29.76,29.65,10,10,10,24,6,29,0.00,0,,312
2013-7-7,96,80,63,57,46,41,48,33,17,29.80,29.73,29.64,10,10,10,15,4,20,0.00,0,,308
2013-7-8,98,81,64,53,44,34,57,35,12,29.94,29.84,29.72,10,10,10,18,6,24,0.00,0,,330
2013-7-9,98,80,61,56,45,35,49,31,12,30.08,29.98,29.86,10,10,10,13,3,16,0.00,0,,196
2013-7-10,100,80,60,63,50,40,60,38,16,29.93,29.83,29.68,10,10,10,18,4,24,0.00,0,,177
2013-7-11,93,78,63,51,42,31,47,33,19,29.85,29.79,29.73,10,10,10,18,7,24,0.00,0,,341
2013-7-12,93,75,56,54,43,24,69,43,16,29.88,29.80,29.68,10,10,10,33,8,43,0.00,0,,324
2013-7-13,89,75,60,38,29,21,31,21,10,30.08,29.98,29.85,10,9,1,23,8,32,0.00,0,,327
2013-7-14,94,76,58,53,43,34,48,32,15,30.04,29.95,29.81,10,10,10,14,4,18,0.00,0,,245
2013-7-15,101,80,59,51,43,36,60,36,11,29.88,29.80,29.67,10,10,10,23,5,29,0.00,0,,316
2013-7-16,100,85,70,62,48,37,45,33,20,29.78,29.72,29.63,10,10,8,18,5,26,0.00,0,,27
2013-7-17,101,84,67,59,43,26,70,39,8,30.00,29.91,29.76,10,10,10,16,7,21,0.00,0,,255
2013-7-18,101,85,68,52,39,27,46,27,8,30.07,29.98,29.88,10,10,10,14,4,18,0.00,0,,312
2013-7-19,104,86,67,50,40,29,38,23,8,29.97,29.88,29.76,10,10,10,23,5,30,0.00,0,,354
2013-7-20,103,86,69,48,38,29,33,21,9,29.88,29.80,29.70,10,10,10,16,4,22,0.00,0,,324
2013-7-21,99,81,62,49,38,25,44,26,8,29.84,29.77,29.69,10,10,10,14,3,31,0.00,0,,198
2013-7-22,100,80,59,48,38,25,48,28,7,29.90,29.83,29.76,10,10,10,12,4,13,0.00,0,,206
2013-7-23,102,80,57,53,40,29,49,29,8,29.99,29.91,29.82,10,10,10,9,2,12,0.00,0,,270
2013-7-24,96,80,64,59,51,34,63,42,20,29.93,29.88,29.84,10,10,7,13,3,21,0.00,0,,166
2013-7-25,101,83,64,61,47,39,61,38,15,29.97,29.92,29.86,10,10,8,14,2,16,0.00,0,,228
2013-7-26,104,86,67,48,40,32,38,24,9,30.05,29.96,29.86,10,10,10,12,4,16,0.00,0,,292
2013-7-27,97,87,76,43,31,24,26,17,8,29.94,29.85,29.73,10,10,10,22,11,28,0.00,0,,312
2013-7-28,92,77,61,49,34,23,37,24,10,29.85,29.77,29.69,10,10,10,22,7,29,0.00,0,,277
2013-7-29,92,77,61,52,39,31,48,31,14,29.88,29.83,29.78,10,10,9,15,5,21,0.00,0,,259
2013-7-30,93,77,60,53,45,34,52,36,19,30.02,29.95,29.86,10,10,10,13,4,16,0.00,0,,129
2013-7-31,96,76,56,50,41,31,66,39,11,30.02,29.92,29.79,10,10,10,23,7,31,0.00,0,,337